createdAt,value
2022-09-04T00:00:03.621Z,56.03
2022-09-04T00:03:15.725Z,56.26
2022-09-04T00:06:05.717Z,56.28
2022-09-04T00:08:51.795Z,56.18
2022-09-04T00:11:44.711Z,56.22
2022-09-04T00:14:37.173Z,56.34
2022-09-04T00:17:34.562Z,56.08
2022-09-04T00:20:20.504Z,56.31
2022-09-04T00:23:12.327Z,56.28
2022-09-04T00:26:03.778Z,56.54
2022-09-04T00:28:54.181Z,56.41
2022-09-04T00:31:48.392Z,56.29
2022-09-04T00:34:55.831Z,56.65
2022-09-04T00:38:06.652Z,56.65
2022-09-04T00:41:15.208Z,56.69
2022-09-04T00:44:28.249Z,56.67
2022-09-04T00:47:17.466Z,56.40
2022-09-04T00:50:07.237Z,56.41
2022-09-04T00:53:21.279Z,56.71
2022-09-04T00:56:36.517Z,56.90
2022-09-04T00:59:34.864Z,56.66
2022-09-04T01:02:36.138Z,56.76
2022-09-04T01:05:32.221Z,56.84
2022-09-04T01:08:31.485Z,56.82
2022-09-04T01:11:29.735Z,56.99
2022-09-04T01:14:20.849Z,56.98
2022-09-04T01:17:15.016Z,56.87
2022-09-04T01:20:14.658Z,57.07
2022-09-04T01:23:19.049Z,56.96
2022-09-04T01:26:04.853Z,57.04
2022-09-04T01:29:28.531Z,57.19
2022-09-04T01:32:38.918Z,57.10
2022-09-04T01:35:33.962Z,57.17
2022-09-04T01:38:34.376Z,57.31
2022-09-04T01:41:24.718Z,56.97
2022-09-04T01:44:12.306Z,56.91
2022-09-04T01:47:17.297Z,57.56
2022-09-04T01:50:10.787Z,57.12
2022-09-04T01:53:25.936Z,57.23
2022-09-04T01:56:44.100Z,57.18
2022-09-04T01:59:33.897Z,57.14
2022-09-04T02:02:46.933Z,57.22
2022-09-04T02:05:56.765Z,58.18
2022-09-04T02:08:47.367Z,57.55
2022-09-04T02:11:33.840Z,57.68
2022-09-04T02:14:22.956Z,57.61
2022-09-04T02:17:28.106Z,57.68
2022-09-04T02:20:32.671Z,57.93
2022-09-04T02:23:30.089Z,57.89
2022-09-04T02:26:42.970Z,57.65
2022-09-04T02:29:47.796Z,57.51
2022-09-04T02:32:40.152Z,57.52
2022-09-04T02:35:50.971Z,57.72
2022-09-04T02:38:55.093Z,57.54
2022-09-04T02:42:03.916Z,57.55
2022-09-04T02:45:01.435Z,57.57
2022-09-04T02:47:52.809Z,57.55
2022-09-04T02:51:13.804Z,58.65
2022-09-04T02:54:09.875Z,57.98
2022-09-04T02:57:17.607Z,58.17
2022-09-04T03:00:18.348Z,58.01
2022-09-04T03:03:18.612Z,58.21
2022-09-04T03:06:14.646Z,58.05
2022-09-04T03:09:06.625Z,58.28
2022-09-04T03:12:36.547Z,58.21
2022-09-04T03:15:28.331Z,58.19
2022-09-04T03:18:31.040Z,58.20
2022-09-04T03:21:24.296Z,58.09
2022-09-04T03:24:19.541Z,58.30
2022-09-04T03:27:08.843Z,58.02
2022-09-04T03:30:02.045Z,57.86
2022-09-04T03:33:03.821Z,58.77
2022-09-04T03:36:11.904Z,58.35
2022-09-04T03:39:05.017Z,58.51
2022-09-04T03:42:10.229Z,58.54
2022-09-04T03:45:02.160Z,58.53
2022-09-04T03:47:53.907Z,58.49
2022-09-04T03:50:49.324Z,58.63
2022-09-04T03:54:02.036Z,58.71
2022-09-04T03:57:10.705Z,58.48
2022-09-04T03:59:59.801Z,58.37
2022-09-04T04:03:02.982Z,58.57
2022-09-04T04:06:02.566Z,58.44
2022-09-04T04:09:20.886Z,58.53
2022-09-04T04:12:27.542Z,58.71
2022-09-04T04:15:21.366Z,58.51
2022-09-04T04:18:29.974Z,58.73
2022-09-04T04:21:31.275Z,58.54
2022-09-04T04:25:03.031Z,58.80
2022-09-04T04:28:07.245Z,58.77
2022-09-04T04:30:54.689Z,58.75
2022-09-04T04:33:49.804Z,58.68
2022-09-04T04:37:11.252Z,58.87
2022-09-04T04:40:06.072Z,58.65
2022-09-04T04:43:20.140Z,58.85
2022-09-04T04:46:24.862Z,58.80
2022-09-04T04:49:37.234Z,59.03
2022-09-04T04:52:55.833Z,59.02
2022-09-04T04:56:04.747Z,59.09
2022-09-04T04:58:54.000Z,59.14
2022-09-04T05:02:07.877Z,59.21
2022-09-04T05:05:02.597Z,58.89
2022-09-04T05:08:07.577Z,58.94
2022-09-04T05:11:06.392Z,59.04
2022-09-04T05:14:20.802Z,59.14
2022-09-04T05:17:25.203Z,59.65
2022-09-04T05:20:29.427Z,59.51
2022-09-04T05:23:39.783Z,59.55
2022-09-04T05:26:44.368Z,59.92
2022-09-04T05:29:47.469Z,59.72
2022-09-04T05:32:38.068Z,59.82
2022-09-04T05:35:45.010Z,59.88
2022-09-04T05:38:59.498Z,59.86
2022-09-04T05:42:06.752Z,59.98
2022-09-04T05:44:57.412Z,59.83
2022-09-04T05:48:27.301Z,59.78
2022-09-04T05:51:42.089Z,59.83
2022-09-04T05:54:45.807Z,59.86
2022-09-04T05:57:53.020Z,60.00
2022-09-04T06:01:08.143Z,60.31
2022-09-04T06:04:19.316Z,60.11
2022-09-04T06:07:13.788Z,60.13
2022-09-04T06:10:03.162Z,59.95
2022-09-04T06:13:07.537Z,59.85
2022-09-04T06:16:02.459Z,59.86
2022-09-04T06:19:15.096Z,60.00
2022-09-04T06:22:17.374Z,59.71
2022-09-04T06:25:06.096Z,59.83
2022-09-04T06:28:13.253Z,60.01
2022-09-04T06:31:21.220Z,59.90
2022-09-04T06:34:39.948Z,60.05
2022-09-04T06:37:36.510Z,60.28
2022-09-04T06:41:00.174Z,60.36
2022-09-04T06:43:58.088Z,60.23
2022-09-04T06:46:56.608Z,60.26
2022-09-04T06:50:11.675Z,60.23
2022-09-04T06:53:01.002Z,60.22
2022-09-04T06:56:07.118Z,60.24
2022-09-04T06:59:01.085Z,60.13
2022-09-04T07:02:17.620Z,60.52
2022-09-04T07:05:22.135Z,60.42
2022-09-04T07:08:08.073Z,60.32
2022-09-04T07:11:20.669Z,60.60
2022-09-04T07:14:29.653Z,60.49
2022-09-04T07:17:34.837Z,60.58
2022-09-04T07:20:30.023Z,60.39
2022-09-04T07:23:20.994Z,60.51
2022-09-04T07:26:13.451Z,60.35
2022-09-04T07:28:59.404Z,60.84
2022-09-04T07:32:07.228Z,60.14
2022-09-04T07:35:03.126Z,60.54
2022-09-04T07:37:58.587Z,60.13
2022-09-04T07:41:09.321Z,60.22
2022-09-04T07:44:23.475Z,60.26
2022-09-04T07:47:16.538Z,60.20
2022-09-04T07:50:22.846Z,60.37
2022-09-04T07:53:27.206Z,60.35
2022-09-04T07:56:31.721Z,60.68
2022-09-04T08:15:28.791Z,63.48
2022-09-04T08:18:36.713Z,63.45
2022-09-04T08:21:31.435Z,63.18
2022-09-04T08:24:36.146Z,62.75
2022-09-04T08:27:44.418Z,62.17
2022-09-04T08:30:39.934Z,61.83
2022-09-04T08:33:38.214Z,61.13
2022-09-04T08:36:42.361Z,60.80
2022-09-04T08:40:11.443Z,60.57
2022-09-04T08:43:06.557Z,60.28
2022-09-04T08:46:11.704Z,60.09
2022-09-04T08:49:17.117Z,59.78
2022-09-04T08:52:40.916Z,60.38
2022-09-04T08:55:50.397Z,60.21
2022-09-04T08:59:04.879Z,59.80
2022-09-04T09:02:06.014Z,59.65
2022-09-04T09:05:28.405Z,59.80
2022-09-04T09:08:14.347Z,59.62
2022-09-04T09:11:25.377Z,59.63
2022-09-04T09:14:41.966Z,59.42
2022-09-04T09:17:54.220Z,59.89
2022-09-04T09:20:45.438Z,59.60
2022-09-04T09:23:56.446Z,59.39
2022-09-04T09:26:55.507Z,59.13
2022-09-04T09:30:00.241Z,59.47
2022-09-04T09:33:03.875Z,59.49
2022-09-04T09:35:57.948Z,59.69
2022-09-04T09:39:36.742Z,59.59
2022-09-04T09:42:31.554Z,59.17
2022-09-04T09:45:38.289Z,59.33
2022-09-04T09:48:30.535Z,58.94
2022-09-04T09:51:31.506Z,59.43
2022-09-04T09:54:23.707Z,59.17
2022-09-04T09:57:33.972Z,59.08
2022-09-04T10:00:23.710Z,58.91
2022-09-04T10:03:51.907Z,59.08
2022-09-04T10:06:56.679Z,58.83
2022-09-04T10:10:30.324Z,58.85
2022-09-04T10:13:28.292Z,58.51
2022-09-04T10:16:46.125Z,58.44
2022-09-04T10:20:08.749Z,58.42
2022-09-04T10:23:07.697Z,58.12
2022-09-04T10:26:15.641Z,58.07
2022-09-04T10:29:14.098Z,57.64
2022-09-04T10:32:09.407Z,57.48
2022-09-04T10:35:25.475Z,57.18
2022-09-04T10:38:20.827Z,55.27
2022-09-04T10:41:39.537Z,57.20
2022-09-04T10:44:40.267Z,55.75
2022-09-04T10:47:41.430Z,56.09
2022-09-04T10:51:08.257Z,55.80
2022-09-04T10:54:30.418Z,53.47
2022-09-04T10:57:44.150Z,55.01
2022-09-04T11:00:50.602Z,54.26
2022-09-04T11:04:03.397Z,53.85
2022-09-04T11:06:58.419Z,54.18
2022-09-04T11:09:59.637Z,53.91
2022-09-04T11:12:45.370Z,53.69
2022-09-04T11:16:30.056Z,53.67
2022-09-04T11:19:37.573Z,53.26
2022-09-04T11:22:34.538Z,53.32
2022-09-04T11:25:44.974Z,48.87
2022-09-04T11:28:46.738Z,52.67
2022-09-04T11:32:21.851Z,52.55
2022-09-04T11:35:46.194Z,52.69
2022-09-04T11:38:44.143Z,52.17
2022-09-04T11:41:58.773Z,51.93
2022-09-04T11:45:17.246Z,44.81
2022-09-04T11:48:26.496Z,44.03
2022-09-04T11:51:33.160Z,50.53
2022-09-04T11:55:14.187Z,50.67
2022-09-04T11:58:46.740Z,46.20
2022-09-04T12:01:35.142Z,50.63
2022-09-04T12:04:42.770Z,49.91
2022-09-04T12:07:58.015Z,49.87
2022-09-04T12:10:59.510Z,46.99
2022-09-04T12:14:30.153Z,49.48
2022-09-04T12:17:34.608Z,49.00
2022-09-04T12:20:51.397Z,49.12
2022-09-04T12:24:14.382Z,49.49
2022-09-04T12:27:21.854Z,48.82
2022-09-04T12:30:23.705Z,49.04
2022-09-04T12:33:34.660Z,48.99
2022-09-04T12:36:48.424Z,48.24
2022-09-04T12:40:04.163Z,48.13
2022-09-04T12:43:01.227Z,47.89
2022-09-04T12:46:06.118Z,46.15
2022-09-04T12:49:04.367Z,47.79
2022-09-04T12:52:27.005Z,48.07
2022-09-04T12:55:19.518Z,47.85
2022-09-04T12:58:08.165Z,48.10
2022-09-04T13:01:45.663Z,47.43
2022-09-04T13:04:44.778Z,46.96
2022-09-04T13:07:58.749Z,39.28
2022-09-04T13:11:03.619Z,46.65
2022-09-04T13:14:11.270Z,46.31
2022-09-04T13:17:16.869Z,46.76
2022-09-04T13:20:20.536Z,46.22
2022-09-04T13:23:39.132Z,46.97
2022-09-04T13:27:07.917Z,46.51
2022-09-04T13:30:09.664Z,45.73
2022-09-04T13:33:20.712Z,45.59
2022-09-04T13:36:22.314Z,45.47
2022-09-04T13:39:19.565Z,45.25
2022-09-04T13:42:28.572Z,42.53
2022-09-04T13:45:23.222Z,44.67
2022-09-04T13:48:20.237Z,45.01
2022-09-04T13:51:29.994Z,40.59
2022-09-04T13:54:21.467Z,44.23
2022-09-04T13:57:28.792Z,45.95
2022-09-04T14:00:17.094Z,44.93
2022-09-04T14:03:07.268Z,44.72
2022-09-04T14:05:53.397Z,44.94
2022-09-04T14:08:39.962Z,44.93
2022-09-04T14:11:58.322Z,43.49
2022-09-04T14:15:07.695Z,44.84
2022-09-04T14:18:14.085Z,44.22
2022-09-04T14:21:33.334Z,45.44
2022-09-04T14:24:34.559Z,45.56
2022-09-04T14:27:35.421Z,45.54
2022-09-04T14:30:23.079Z,45.62
2022-09-04T14:33:19.420Z,45.79
2022-09-04T14:36:43.213Z,46.02
2022-09-04T14:39:35.639Z,45.91
2022-09-04T14:42:46.112Z,46.19
2022-09-04T14:45:53.221Z,46.26
2022-09-04T14:48:42.057Z,46.26
2022-09-04T14:51:28.873Z,46.16
2022-09-04T14:54:30.942Z,46.72
2022-09-04T14:57:22.888Z,46.65
2022-09-04T15:00:09.587Z,46.43
2022-09-04T15:02:58.724Z,46.72
2022-09-04T15:05:56.770Z,47.00
2022-09-04T15:08:44.388Z,46.90
2022-09-04T15:11:33.442Z,47.44
2022-09-04T15:14:34.370Z,47.64
2022-09-04T15:17:28.678Z,47.72
2022-09-04T15:20:36.127Z,48.00
2022-09-04T15:23:55.949Z,50.72
2022-09-04T15:26:51.466Z,48.47
2022-09-04T15:29:38.496Z,48.73
2022-09-04T15:32:26.799Z,53.00
2022-09-04T15:35:28.347Z,51.63
2022-09-04T15:38:27.370Z,50.42
2022-09-04T15:41:27.485Z,50.67
2022-09-04T15:44:40.868Z,51.01
2022-09-04T15:47:55.838Z,51.11
2022-09-04T15:51:19.029Z,51.53
2022-09-04T15:54:07.826Z,51.30
2022-09-04T15:57:08.581Z,51.60
2022-09-04T16:00:26.446Z,51.80
2022-09-04T16:03:29.186Z,52.20
2022-09-04T16:06:20.656Z,51.92
2022-09-04T16:09:29.348Z,52.53
2022-09-04T16:12:26.438Z,52.26
2022-09-04T16:15:23.018Z,52.49
2022-09-04T16:18:39.820Z,52.80
2022-09-04T16:21:43.457Z,52.47
2022-09-04T16:24:35.636Z,52.69
2022-09-04T16:27:24.573Z,53.73
2022-09-04T16:30:26.493Z,53.27
2022-09-04T16:33:27.873Z,52.95
2022-09-04T16:36:17.081Z,53.06
2022-09-04T16:39:23.373Z,53.13
2022-09-04T16:42:21.877Z,53.27
2022-09-04T16:45:15.965Z,53.27
2022-09-04T16:48:33.540Z,53.21
2022-09-04T16:51:41.507Z,53.03
2022-09-04T16:54:35.563Z,53.11
2022-09-04T16:57:29.913Z,53.29
2022-09-04T17:00:17.696Z,53.33
2022-09-04T17:03:19.157Z,53.59
2022-09-04T17:06:18.813Z,53.55
2022-09-04T17:09:21.308Z,53.54
2022-09-04T17:12:40.576Z,53.85
2022-09-04T17:15:37.263Z,54.44
2022-09-04T17:18:25.000Z,55.21
2022-09-04T17:25:47.190Z,54.63
2022-09-04T17:29:03.745Z,54.38
2022-09-04T17:29:10.936Z,54.75
2022-09-04T17:31:45.581Z,54.79
2022-09-04T17:40:44.531Z,54.98
2022-09-04T17:40:55.715Z,55.00
2022-09-04T17:41:39.509Z,54.93
2022-09-04T17:44:35.524Z,55.09
2022-09-04T17:47:32.316Z,55.18
2022-09-04T17:50:22.619Z,55.13
2022-09-04T17:53:20.016Z,55.25
2022-09-04T17:56:23.029Z,55.29
2022-09-04T17:59:23.270Z,55.29
2022-09-04T18:02:23.387Z,55.05
2022-09-04T18:05:13.374Z,55.36
2022-09-04T18:08:11.233Z,55.68
2022-09-04T18:11:01.093Z,55.58
2022-09-04T18:14:32.081Z,55.87
2022-09-04T18:17:29.267Z,55.69
2022-09-04T18:20:29.510Z,55.67
2022-09-04T18:23:51.649Z,55.83
2022-09-04T18:26:40.530Z,55.80
2022-09-04T18:30:51.879Z,55.64
2022-09-04T18:37:12.565Z,55.77
2022-09-04T18:37:16.622Z,55.77
2022-09-04T18:39:38.794Z,55.72
2022-09-04T18:50:28.772Z,55.57
2022-09-04T18:50:29.202Z,55.73
2022-09-04T18:50:30.654Z,56.12
2022-09-04T18:52:16.040Z,56.02
2022-09-04T18:55:09.123Z,56.06
2022-09-04T18:57:55.921Z,56.13
2022-09-04T19:01:20.469Z,56.36
2022-09-04T19:04:31.846Z,56.10
2022-09-04T19:07:34.508Z,56.13
2022-09-04T19:10:25.786Z,56.04
2022-09-04T19:13:22.632Z,56.10
2022-09-04T19:16:11.896Z,56.09
2022-09-04T19:19:17.162Z,56.10
2022-09-04T19:22:21.453Z,56.10
2022-09-04T19:25:22.906Z,56.17
2022-09-04T19:28:13.782Z,56.17
2022-09-04T19:31:06.302Z,56.43
2022-09-04T19:34:23.632Z,56.87
2022-09-04T19:38:34.036Z,56.39
2022-09-04T19:46:00.738Z,56.60
2022-09-04T19:46:17.657Z,56.58
2022-09-04T19:47:27.362Z,56.91
2022-09-04T19:53:19.219Z,56.51
2022-09-04T19:53:46.960Z,56.64
2022-09-04T19:57:31.472Z,56.99
2022-09-04T20:00:38.238Z,56.79
2022-09-04T20:03:33.808Z,56.88
2022-09-04T20:06:24.692Z,56.74
2022-09-04T20:09:28.653Z,57.09
2022-09-04T20:12:34.186Z,57.23
2022-09-04T20:15:25.974Z,57.17
2022-09-04T20:18:26.453Z,57.20
2022-09-04T20:21:24.185Z,57.14
2022-09-04T20:24:19.339Z,57.35
2022-09-04T20:27:20.409Z,57.31
2022-09-04T20:30:32.919Z,57.41
2022-09-04T20:33:24.573Z,57.40
2022-09-04T20:36:12.943Z,57.56
2022-09-04T20:39:24.103Z,57.52
2022-09-04T20:42:22.462Z,57.53
2022-09-04T20:48:07.742Z,57.58
2022-09-04T20:52:50.064Z,57.62
2022-09-04T20:52:51.140Z,58.21
2022-09-04T20:54:59.032Z,58.53
2022-09-04T21:03:08.923Z,58.13
2022-09-04T21:03:21.364Z,61.46
2022-09-04T21:04:53.494Z,62.73
2022-09-04T21:07:47.563Z,59.05
2022-09-04T21:10:49.140Z,58.61
2022-09-04T21:13:48.077Z,62.40
2022-09-04T21:16:55.914Z,65.50
2022-09-04T21:19:54.241Z,61.61
2022-09-04T21:22:48.656Z,60.13
2022-09-04T21:25:40.894Z,60.23
2022-09-04T21:28:30.908Z,59.40
2022-09-04T21:31:43.335Z,59.32
2022-09-04T21:35:02.129Z,59.37
2022-09-04T21:37:58.225Z,59.17
2022-09-04T21:41:02.744Z,59.24
2022-09-04T21:43:48.821Z,58.97
2022-09-04T21:46:58.386Z,59.10
2022-09-04T21:50:23.057Z,59.11
2022-09-04T21:53:45.723Z,58.82
2022-09-04T22:01:39.584Z,58.90
2022-09-04T22:02:35.465Z,59.05
2022-09-04T22:03:44.509Z,59.12
2022-09-04T22:10:10.183Z,59.24
2022-09-04T22:13:41.297Z,59.19
2022-09-04T22:13:50.156Z,59.12
2022-09-04T22:16:42.537Z,59.25
2022-09-04T22:19:47.090Z,59.21
2022-09-04T22:22:38.876Z,59.13
2022-09-04T22:25:39.853Z,59.32
2022-09-04T22:28:41.322Z,59.33
2022-09-04T22:31:30.348Z,59.21
2022-09-04T22:34:40.636Z,59.31
2022-09-04T22:37:51.294Z,59.26
2022-09-04T22:40:56.797Z,59.22
2022-09-04T22:43:47.588Z,59.26
2022-09-04T22:46:46.471Z,59.16
2022-09-04T22:49:54.419Z,59.83
2022-09-04T22:53:03.687Z,60.01
2022-09-04T22:56:24.735Z,59.57
2022-09-04T22:59:30.619Z,59.51
2022-09-04T23:03:07.733Z,59.55
2022-09-04T23:07:43.752Z,59.76
2022-09-04T23:13:48.740Z,60.02
2022-09-04T23:14:00.809Z,59.37
2022-09-04T23:16:01.698Z,59.59
2022-09-04T23:23:15.643Z,59.86
2022-09-04T23:26:50.722Z,60.32
2022-09-04T23:27:00.997Z,60.88
2022-09-04T23:30:27.101Z,60.34
2022-09-04T23:33:29.359Z,61.16
2022-09-04T23:36:51.052Z,60.64
2022-09-04T23:39:43.390Z,60.47
2022-09-04T23:43:03.254Z,60.39
2022-09-04T23:46:18.511Z,62.14
2022-09-04T23:49:32.121Z,60.38
2022-09-04T23:52:48.792Z,60.42
2022-09-04T23:55:59.562Z,60.78
2022-09-04T23:59:04.207Z,60.48
